Terminal Aerodrome Forecast
Issued by NWS

Home | Current Version | Previous Version | Graphics & Text | Print | Product List | Glossary On
Versions: 1 2 3 4 5 6 7 8 9 10 11 12
000
FTUS45 KGGW 220500
TAFGDV
TAF
KGDV 220524Z 2206/2306 29014G22KT 6SM -RA BR SCT030 BKN050
     FM220700 30017G24KT P6SM VCSH BKN090
     FM221100 26011KT P6SM SKC
     FM221600 27018G25KT P6SM SKC
     FM222300 26007KT P6SM SKC
      AMD LTD TO CLD VIS AND WIND=

USA.gov is the U.S. government's official web portal to all federal, state and local government web resources and services.